createdAt,value
2019-03-31T00:01:57.132Z,11.90
2019-03-31T00:04:32.934Z,11.90
2019-03-31T00:07:01.859Z,11.80
2019-03-31T00:09:30.931Z,11.70
2019-03-31T00:12:06.398Z,11.60
2019-03-31T00:14:35.408Z,11.60
2019-03-31T00:17:11.043Z,11.50
2019-03-31T00:19:39.947Z,11.40
2019-03-31T00:22:09.061Z,11.40
2019-03-31T00:24:45.506Z,11.40
2019-03-31T00:27:14.487Z,11.30
2019-03-31T00:29:50.644Z,11.30
2019-03-31T00:32:25.732Z,11.20
2019-03-31T00:35:01.961Z,11.20
2019-03-31T00:37:31.007Z,11.20
2019-03-31T00:40:00.040Z,11.10
2019-03-31T00:42:36.324Z,11.00
2019-03-31T00:45:13.801Z,11.00
2019-03-31T00:47:49.857Z,11.00
2019-03-31T00:50:18.954Z,11.00
2019-03-31T00:52:48.051Z,10.90
2019-03-31T00:55:24.237Z,10.80
2019-03-31T00:57:53.307Z,10.80
2019-03-31T01:00:31.827Z,10.70
2019-03-31T01:03:01.141Z,10.60
2019-03-31T01:05:30.242Z,10.60
2019-03-31T01:08:06.683Z,10.60
2019-03-31T01:10:35.558Z,10.60
2019-03-31T01:13:11.334Z,10.70
2019-03-31T01:15:42.189Z,10.60
2019-03-31T01:18:11.966Z,10.60
2019-03-31T01:20:47.946Z,10.60
2019-03-31T01:23:16.948Z,10.60
2019-03-31T01:25:53.069Z,10.50
2019-03-31T01:28:22.507Z,10.50
2019-03-31T01:30:51.699Z,10.50
2019-03-31T01:33:35.057Z,10.40
2019-03-31T01:36:04.902Z,10.40
2019-03-31T01:38:40.587Z,10.40
2019-03-31T01:41:09.723Z,10.40
2019-03-31T01:43:51.794Z,10.40
2019-03-31T01:46:23.557Z,10.40
2019-03-31T01:48:53.023Z,10.30
2019-03-31T01:51:28.604Z,10.30
2019-03-31T01:53:57.619Z,10.20
2019-03-31T01:56:33.587Z,10.10
2019-03-31T01:59:02.961Z,10.10
2019-03-31T02:01:31.954Z,10.00
2019-03-31T02:04:07.617Z,10.00
2019-03-31T02:06:36.695Z,10.00
2019-03-31T02:09:13.262Z,10.00
2019-03-31T02:11:42.370Z,9.90
2019-03-31T02:14:11.466Z,9.90
2019-03-31T02:16:48.622Z,9.80
2019-03-31T02:19:17.649Z,9.70
2019-03-31T02:21:53.864Z,9.70
2019-03-31T02:24:22.847Z,9.70
2019-03-31T02:26:52.100Z,9.70
2019-03-31T02:29:27.759Z,9.70
2019-03-31T02:31:56.943Z,9.60
2019-03-31T02:34:39.994Z,9.60
2019-03-31T02:37:08.858Z,9.60
2019-03-31T02:39:38.066Z,9.50
2019-03-31T02:42:14.220Z,9.50
2019-03-31T02:44:51.328Z,9.50
2019-03-31T02:47:34.080Z,9.40
2019-03-31T02:50:03.058Z,9.40
2019-03-31T02:52:32.013Z,9.40
2019-03-31T02:55:09.067Z,9.40
2019-03-31T02:57:38.192Z,9.40
2019-03-31T03:00:14.521Z,9.40
2019-03-31T03:02:43.739Z,9.40
2019-03-31T03:05:19.757Z,9.30
2019-03-31T03:07:55.974Z,9.30
2019-03-31T03:10:25.589Z,9.30
2019-03-31T03:13:02.563Z,9.30
2019-03-31T03:15:33.073Z,9.20
2019-03-31T03:18:02.195Z,9.20
2019-03-31T03:20:38.566Z,9.20
2019-03-31T03:23:07.401Z,9.20
2019-03-31T03:25:55.932Z,9.30
2019-03-31T03:28:14.861Z,9.30
2019-03-31T03:30:44.345Z,9.20
2019-03-31T03:33:21.301Z,9.20
2019-03-31T03:35:57.093Z,9.20
2019-03-31T03:38:33.364Z,9.20
2019-03-31T03:41:02.764Z,9.20
2019-03-31T03:43:54.075Z,9.20
2019-03-31T03:46:16.170Z,9.30
2019-03-31T03:49:00.958Z,9.20
2019-03-31T03:51:30.178Z,9.20
2019-03-31T03:53:59.582Z,9.20
2019-03-31T03:56:35.151Z,9.20
2019-03-31T03:59:04.023Z,9.10
2019-03-31T04:01:40.426Z,9.10
2019-03-31T04:04:09.485Z,9.10
2019-03-31T04:06:38.892Z,9.00
2019-03-31T04:09:14.339Z,9.00
2019-03-31T04:11:43.465Z,8.90
2019-03-31T04:14:19.586Z,8.90
2019-03-31T04:16:48.603Z,8.80
2019-03-31T04:19:24.268Z,8.80
2019-03-31T04:21:53.332Z,8.80
2019-03-31T04:24:22.526Z,8.80
2019-03-31T04:26:59.197Z,8.80
2019-03-31T04:29:28.407Z,8.80
2019-03-31T04:32:04.274Z,8.90
2019-03-31T04:34:33.101Z,8.90
2019-03-31T04:37:08.796Z,9.00
2019-03-31T04:39:44.696Z,9.10
2019-03-31T04:42:13.750Z,9.10
2019-03-31T04:44:50.299Z,9.10
2019-03-31T04:47:26.486Z,9.10
2019-03-31T04:50:02.443Z,9.10
2019-03-31T04:52:31.434Z,9.10
2019-03-31T04:55:00.484Z,9.10
2019-03-31T04:57:37.413Z,9.20
2019-03-31T05:00:06.723Z,9.10
2019-03-31T05:02:42.247Z,9.20
2019-03-31T05:05:11.116Z,9.20
2019-03-31T05:07:39.953Z,9.30
2019-03-31T05:10:16.206Z,9.30
2019-03-31T05:12:45.296Z,9.30
2019-03-31T05:15:21.155Z,9.40
2019-03-31T05:17:50.265Z,9.40
2019-03-31T05:20:19.352Z,9.50
2019-03-31T05:22:55.355Z,9.50
2019-03-31T05:25:24.495Z,9.60
2019-03-31T05:28:00.663Z,9.60
2019-03-31T05:30:29.866Z,9.60
2019-03-31T05:33:00.402Z,9.50
2019-03-31T05:35:36.040Z,9.50
2019-03-31T05:38:11.299Z,9.50
2019-03-31T05:40:47.465Z,9.50
2019-03-31T05:43:16.645Z,9.50
2019-03-31T05:45:52.600Z,9.40
2019-03-31T05:48:28.963Z,9.50
2019-03-31T05:51:04.308Z,9.50
2019-03-31T05:53:33.188Z,9.40
2019-03-31T05:56:02.281Z,9.20
2019-03-31T05:58:38.120Z,9.30
2019-03-31T06:01:08.957Z,9.10
2019-03-31T06:03:45.049Z,9.10
2019-03-31T06:06:13.937Z,9.10
2019-03-31T06:08:43.048Z,9.10
2019-03-31T06:11:18.866Z,9.10
2019-03-31T06:13:47.779Z,9.10
2019-03-31T06:16:24.744Z,9.10
2019-03-31T06:18:54.188Z,9.00
2019-03-31T06:21:23.260Z,9.00
2019-03-31T06:23:58.852Z,9.00
2019-03-31T06:26:27.806Z,9.00
2019-03-31T06:29:03.565Z,9.00
2019-03-31T06:31:32.756Z,9.10
2019-03-31T06:34:01.651Z,9.10
2019-03-31T06:36:37.929Z,9.10
2019-03-31T06:39:13.349Z,9.10
2019-03-31T06:41:49.827Z,9.20
2019-03-31T06:44:19.127Z,9.20
2019-03-31T06:46:54.376Z,9.20
2019-03-31T06:49:23.545Z,9.20
2019-03-31T06:51:52.764Z,9.20
2019-03-31T06:54:27.916Z,9.30
2019-03-31T06:56:56.811Z,9.20
2019-03-31T06:59:32.541Z,9.10
2019-03-31T07:02:03.327Z,9.20
2019-03-31T07:04:32.374Z,9.30
2019-03-31T07:07:07.826Z,9.30
2019-03-31T07:09:36.915Z,9.30
2019-03-31T07:12:12.772Z,9.40
2019-03-31T07:14:41.638Z,9.50
2019-03-31T07:17:10.758Z,9.60
2019-03-31T07:19:46.652Z,9.60
2019-03-31T07:22:15.709Z,9.70
2019-03-31T07:24:51.565Z,9.80
2019-03-31T07:27:20.475Z,9.80
2019-03-31T07:29:49.344Z,10.00
2019-03-31T07:32:25.827Z,10.10
2019-03-31T07:34:55.020Z,10.20
2019-03-31T07:37:31.084Z,10.40
2019-03-31T07:40:12.693Z,10.50
2019-03-31T07:42:51.068Z,10.60
2019-03-31T07:45:21.508Z,10.60
2019-03-31T07:48:07.889Z,10.90
2019-03-31T07:50:35.184Z,11.00
2019-03-31T07:53:04.037Z,11.10
2019-03-31T07:55:40.418Z,11.40
2019-03-31T07:58:09.930Z,11.40
2019-03-31T08:00:46.397Z,11.60
2019-03-31T08:03:15.693Z,11.70
2019-03-31T08:05:44.791Z,11.80
2019-03-31T08:08:21.608Z,12.00
2019-03-31T08:10:50.528Z,11.90
2019-03-31T08:13:26.230Z,12.10
2019-03-31T08:15:55.209Z,12.30
2019-03-31T08:18:24.840Z,12.60
2019-03-31T08:21:00.575Z,13.00
2019-03-31T08:23:29.758Z,13.20
2019-03-31T08:26:04.960Z,13.30
2019-03-31T08:28:33.829Z,13.10
2019-03-31T08:31:02.785Z,13.10
2019-03-31T08:33:39.793Z,13.30
2019-03-31T08:36:08.760Z,13.60
2019-03-31T08:38:44.964Z,13.50
2019-03-31T08:41:21.458Z,13.80
2019-03-31T08:43:58.065Z,13.80
2019-03-31T08:46:27.014Z,14.20
2019-03-31T08:49:09.668Z,14.40
2019-03-31T08:51:45.015Z,14.30
2019-03-31T08:54:21.085Z,14.10
2019-03-31T08:56:50.273Z,13.70
2019-03-31T08:59:20.096Z,13.60
2019-03-31T09:01:56.357Z,13.70
2019-03-31T09:04:25.230Z,14.00
2019-03-31T09:07:01.335Z,15.90
2019-03-31T09:09:30.214Z,18.50
2019-03-31T09:11:59.292Z,21.40
2019-03-31T09:14:35.193Z,23.70
2019-03-31T09:17:04.126Z,25.80
2019-03-31T09:19:40.458Z,25.90
2019-03-31T09:22:09.608Z,25.10
2019-03-31T09:24:38.704Z,24.10
2019-03-31T09:27:14.183Z,24.00
2019-03-31T09:29:43.114Z,24.40
2019-03-31T09:32:19.513Z,22.60
2019-03-31T09:34:48.456Z,21.20
2019-03-31T09:37:17.786Z,20.10
2019-03-31T09:39:53.046Z,19.00
2019-03-31T09:42:28.561Z,19.00
2019-03-31T09:45:04.886Z,18.40
2019-03-31T09:47:33.771Z,18.20
2019-03-31T09:50:17.498Z,17.90
2019-03-31T09:52:46.355Z,17.10
2019-03-31T09:55:15.310Z,16.60
2019-03-31T09:57:51.814Z,16.00
2019-03-31T10:00:43.963Z,15.40
2019-03-31T10:03:22.070Z,14.90
2019-03-31T10:05:51.605Z,14.30
2019-03-31T10:08:22.293Z,14.10
2019-03-31T10:11:12.718Z,14.20
2019-03-31T10:13:48.371Z,14.30
2019-03-31T10:16:24.018Z,14.30
2019-03-31T10:18:53.114Z,14.40
2019-03-31T10:21:21.978Z,14.40
2019-03-31T10:23:59.085Z,14.40
2019-03-31T10:26:32.114Z,14.50
2019-03-31T10:29:05.913Z,14.40
2019-03-31T10:31:34.981Z,14.10
2019-03-31T10:34:05.192Z,13.80
2019-03-31T10:36:44.610Z,13.70
2019-03-31T10:39:12.004Z,13.80
2019-03-31T10:41:41.195Z,13.80
2019-03-31T10:44:17.259Z,14.00
2019-03-31T10:46:46.168Z,13.90
2019-03-31T10:49:21.800Z,14.00
2019-03-31T10:51:57.748Z,14.50
2019-03-31T10:54:33.969Z,14.80
2019-03-31T10:57:02.875Z,15.20
2019-03-31T10:59:31.800Z,15.50
2019-03-31T11:02:07.959Z,15.70
2019-03-31T11:04:37.062Z,15.70
2019-03-31T11:07:13.424Z,15.80
2019-03-31T11:09:42.406Z,15.70
2019-03-31T11:12:11.525Z,15.30
2019-03-31T11:14:47.775Z,15.00
2019-03-31T11:17:16.801Z,14.50
2019-03-31T11:19:45.763Z,14.50
2019-03-31T11:22:23.477Z,14.40
2019-03-31T11:24:52.385Z,14.20
2019-03-31T11:27:21.665Z,14.20
2019-03-31T11:29:57.203Z,14.20
2019-03-31T11:32:26.090Z,14.00
2019-03-31T11:34:55.085Z,13.90
2019-03-31T11:37:31.066Z,13.90
2019-03-31T11:40:00.390Z,14.20
2019-03-31T11:42:29.842Z,14.50
2019-03-31T11:45:06.234Z,14.70
2019-03-31T11:47:41.914Z,14.60
2019-03-31T11:50:19.129Z,14.50
2019-03-31T11:52:54.228Z,14.40
2019-03-31T11:55:36.820Z,14.20
2019-03-31T11:58:05.672Z,14.30
2019-03-31T12:00:36.172Z,14.40
2019-03-31T12:03:12.281Z,14.60
2019-03-31T12:05:41.379Z,14.60
2019-03-31T12:08:16.500Z,14.40
2019-03-31T12:10:45.427Z,14.70
2019-03-31T12:13:14.419Z,15.00
2019-03-31T12:15:50.574Z,14.90
2019-03-31T12:18:19.472Z,15.00
2019-03-31T12:20:56.128Z,15.20
2019-03-31T12:23:25.000Z,15.40
2019-03-31T12:25:54.224Z,15.30
2019-03-31T12:28:30.280Z,15.60
2019-03-31T12:30:59.178Z,16.00
2019-03-31T12:33:34.616Z,16.10
2019-03-31T12:36:04.737Z,16.20
2019-03-31T12:38:33.635Z,15.90
2019-03-31T12:41:08.998Z,15.80
2019-03-31T12:43:38.069Z,15.70
2019-03-31T12:46:20.709Z,15.60
2019-03-31T12:48:49.533Z,15.70
2019-03-31T12:51:31.593Z,15.40
2019-03-31T12:54:07.043Z,15.40
2019-03-31T12:56:42.782Z,15.40
2019-03-31T12:59:12.074Z,15.30
2019-03-31T13:04:53.284Z,15.30
2019-03-31T13:07:22.119Z,15.10
2019-03-31T13:09:57.813Z,15.20
2019-03-31T13:12:26.830Z,15.30
2019-03-31T13:14:56.006Z,15.30
2019-03-31T13:17:33.497Z,15.50
2019-03-31T13:20:02.592Z,15.60
2019-03-31T13:22:38.340Z,15.60
2019-03-31T13:25:08.255Z,15.40
2019-03-31T13:27:37.770Z,15.20
2019-03-31T13:30:16.181Z,15.10
2019-03-31T13:32:45.078Z,15.00
2019-03-31T13:35:22.051Z,14.90
2019-03-31T13:37:51.220Z,14.80
2019-03-31T13:40:20.758Z,14.80
2019-03-31T13:42:55.892Z,14.90
2019-03-31T13:45:24.808Z,14.80
2019-03-31T13:48:08.630Z,14.90
2019-03-31T13:50:37.506Z,14.90
2019-03-31T13:53:16.142Z,14.70
2019-03-31T13:55:43.541Z,14.80
2019-03-31T13:58:13.791Z,14.70
2019-03-31T14:00:50.564Z,14.80
2019-03-31T14:03:26.174Z,14.60
2019-03-31T14:06:10.041Z,14.50
2019-03-31T14:08:39.389Z,14.30
2019-03-31T14:11:08.387Z,14.30
2019-03-31T14:13:44.651Z,14.30
2019-03-31T14:16:13.549Z,14.30
2019-03-31T14:18:49.107Z,14.20
2019-03-31T14:21:18.386Z,14.30
2019-03-31T14:23:48.094Z,14.30
2019-03-31T14:26:24.268Z,14.10
2019-03-31T14:28:53.862Z,14.00
2019-03-31T14:31:29.849Z,14.10
2019-03-31T14:33:59.136Z,14.30
2019-03-31T14:36:28.526Z,14.40
2019-03-31T14:39:04.621Z,14.50
2019-03-31T14:41:33.495Z,14.70
2019-03-31T14:44:09.442Z,14.70
2019-03-31T14:46:38.772Z,14.80
2019-03-31T14:49:21.469Z,14.90
2019-03-31T14:51:50.448Z,14.80
2019-03-31T14:54:19.755Z,14.80
2019-03-31T14:56:56.015Z,14.70
2019-03-31T14:59:25.113Z,14.70
2019-03-31T15:02:00.552Z,14.50
2019-03-31T15:04:36.208Z,14.50
2019-03-31T15:07:28.090Z,14.60
2019-03-31T15:09:58.382Z,14.60
2019-03-31T15:12:28.377Z,14.60
2019-03-31T15:15:04.339Z,14.60
2019-03-31T15:17:33.239Z,14.50
2019-03-31T15:20:09.492Z,14.30
2019-03-31T15:22:38.589Z,14.20
2019-03-31T15:25:07.692Z,14.10
2019-03-31T15:27:44.066Z,14.10
2019-03-31T15:30:13.133Z,14.10
2019-03-31T15:32:42.067Z,14.10
2019-03-31T15:35:18.863Z,14.20
2019-03-31T15:37:47.808Z,14.10
2019-03-31T15:40:17.211Z,14.00
2019-03-31T15:42:53.062Z,13.80
2019-03-31T15:45:22.162Z,13.70
2019-03-31T15:47:51.341Z,13.50
2019-03-31T15:50:33.511Z,13.50
2019-03-31T15:53:02.490Z,13.40
2019-03-31T15:55:38.918Z,13.20
2019-03-31T15:58:08.017Z,13.20
2019-03-31T16:00:37.241Z,13.30
2019-03-31T16:03:12.764Z,13.30
2019-03-31T16:05:48.730Z,13.40
2019-03-31T16:08:31.865Z,13.40
2019-03-31T16:11:00.716Z,13.40
2019-03-31T16:13:30.140Z,13.30
2019-03-31T16:16:07.547Z,13.20
2019-03-31T16:18:36.438Z,13.10
2019-03-31T16:21:12.303Z,13.00
2019-03-31T16:23:42.405Z,12.80
2019-03-31T16:26:11.629Z,12.80
2019-03-31T16:28:47.842Z,12.80
2019-03-31T16:31:17.101Z,12.80
2019-03-31T16:33:53.040Z,12.80
2019-03-31T16:36:22.009Z,12.70
2019-03-31T16:38:51.134Z,12.80
2019-03-31T16:41:26.763Z,12.70
2019-03-31T16:43:55.671Z,12.70
2019-03-31T16:46:24.708Z,12.70
2019-03-31T16:49:07.982Z,12.60
2019-03-31T16:51:37.076Z,12.60
2019-03-31T16:54:12.721Z,12.50
2019-03-31T16:56:41.820Z,12.50
2019-03-31T16:59:10.708Z,12.50
2019-03-31T17:01:46.807Z,12.50
2019-03-31T17:04:15.865Z,12.40
2019-03-31T17:06:51.729Z,12.40
2019-03-31T17:09:27.937Z,12.30
2019-03-31T17:12:04.063Z,12.20
2019-03-31T17:14:32.939Z,12.10
2019-03-31T17:17:02.011Z,12.00
2019-03-31T17:19:37.767Z,11.90
2019-03-31T17:22:07.093Z,11.80
2019-03-31T17:24:36.183Z,11.70
2019-03-31T17:27:13.962Z,11.70
2019-03-31T17:29:41.956Z,11.60
2019-03-31T17:32:18.022Z,11.50
2019-03-31T17:34:47.032Z,11.30
2019-03-31T17:37:23.382Z,11.30
2019-03-31T17:40:06.098Z,11.20
2019-03-31T17:42:38.696Z,11.20
2019-03-31T17:45:08.763Z,11.10
2019-03-31T17:47:38.168Z,11.00
2019-03-31T17:50:24.049Z,11.00
2019-03-31T17:52:53.183Z,10.90
2019-03-31T17:55:29.455Z,10.90
2019-03-31T17:57:58.343Z,10.80
2019-03-31T18:00:27.258Z,10.80
2019-03-31T18:03:03.490Z,10.60
2019-03-31T18:05:32.366Z,10.60
2019-03-31T18:08:09.054Z,10.50
2019-03-31T18:10:38.021Z,10.50
2019-03-31T18:13:07.249Z,10.50
2019-03-31T18:15:43.305Z,10.40
2019-03-31T18:18:12.198Z,10.40
2019-03-31T18:20:48.488Z,10.40
2019-03-31T18:23:17.474Z,10.30
2019-03-31T18:25:46.449Z,10.30
2019-03-31T18:28:22.594Z,10.20
2019-03-31T18:30:51.455Z,10.10
2019-03-31T18:33:28.510Z,10.00
2019-03-31T18:35:57.577Z,10.00
2019-03-31T18:38:26.464Z,9.90
2019-03-31T18:41:03.837Z,9.90
2019-03-31T18:43:33.034Z,9.80
2019-03-31T18:46:08.003Z,9.80
2019-03-31T18:48:37.190Z,9.80
2019-03-31T18:51:21.033Z,9.70
2019-03-31T18:54:03.646Z,9.70
2019-03-31T18:56:41.331Z,9.60
2019-03-31T18:59:29.693Z,9.50
2019-03-31T19:02:07.185Z,9.40
2019-03-31T19:04:55.852Z,9.40
2019-03-31T19:07:43.474Z,9.30
2019-03-31T19:10:24.831Z,9.20
2019-03-31T19:13:13.960Z,9.10
2019-03-31T19:15:47.556Z,9.10
2019-03-31T19:18:30.866Z,9.00
2019-03-31T19:21:10.858Z,9.00
2019-03-31T19:24:05.950Z,8.90
2019-03-31T19:26:52.981Z,8.80
2019-03-31T19:29:32.774Z,8.80
2019-03-31T19:32:19.277Z,8.70
2019-03-31T19:34:58.418Z,8.70
2019-03-31T19:37:43.632Z,8.60
2019-03-31T19:40:21.384Z,8.60
2019-03-31T19:43:07.202Z,8.50
2019-03-31T19:46:00.883Z,8.50
2019-03-31T19:48:34.347Z,8.40
2019-03-31T19:51:14.293Z,8.40
2019-03-31T19:54:38.478Z,8.40
2019-03-31T19:57:28.265Z,8.30
2019-03-31T20:00:04.942Z,8.20
2019-03-31T20:02:54.437Z,8.20
2019-03-31T20:05:41.277Z,8.20
2019-03-31T20:08:30.413Z,8.10
2019-03-31T20:11:23.469Z,8.10
2019-03-31T20:14:06.057Z,8.10
2019-03-31T20:16:36.604Z,8.00
2019-03-31T20:19:09.984Z,8.00
2019-03-31T20:22:05.502Z,7.90
2019-03-31T20:24:36.236Z,7.90
2019-03-31T20:27:14.072Z,7.90
2019-03-31T20:29:44.855Z,7.90
2019-03-31T20:32:37.319Z,7.80
2019-03-31T20:35:15.007Z,7.80
2019-03-31T20:37:52.646Z,7.80
2019-03-31T20:40:23.242Z,7.80
2019-03-31T20:43:03.809Z,7.70
2019-03-31T20:45:32.719Z,7.70
2019-03-31T20:48:01.598Z,7.70
2019-03-31T20:50:38.060Z,7.60
2019-03-31T20:53:06.953Z,7.60
2019-03-31T20:55:49.622Z,7.50
2019-03-31T20:58:18.379Z,7.50
2019-03-31T21:00:47.216Z,7.50
2019-03-31T21:03:23.409Z,7.40
2019-03-31T21:05:52.218Z,7.40
2019-03-31T21:08:27.638Z,7.40
2019-03-31T21:11:03.958Z,7.30
2019-03-31T21:13:39.784Z,7.30
2019-03-31T21:16:08.641Z,7.30
2019-03-31T21:18:37.554Z,7.30
2019-03-31T21:21:13.914Z,7.20
2019-03-31T21:23:43.008Z,7.20
2019-03-31T21:26:12.103Z,7.20
2019-03-31T21:28:48.162Z,7.10
2019-03-31T21:31:17.258Z,7.10
2019-03-31T21:33:46.362Z,7.10
2019-03-31T21:36:22.415Z,7.10
2019-03-31T21:38:51.305Z,7.00
2019-03-31T21:41:26.686Z,7.00
2019-03-31T21:43:55.844Z,7.00
2019-03-31T21:46:24.940Z,6.90
2019-03-31T21:49:01.207Z,6.90
2019-03-31T21:51:30.020Z,6.90
2019-03-31T21:54:06.157Z,6.80
2019-03-31T22:07:07.506Z,6.70
2019-03-31T22:09:43.141Z,6.60
2019-03-31T22:12:26.783Z,6.60
2019-03-31T22:14:55.865Z,6.50
2019-03-31T22:17:24.864Z,6.50
2019-03-31T22:20:01.580Z,6.40
2019-03-31T22:22:30.877Z,6.40
2019-03-31T22:25:07.436Z,6.30
2019-03-31T22:27:36.636Z,6.30
2019-03-31T22:30:07.498Z,6.30
2019-03-31T22:32:43.603Z,6.30
2019-03-31T22:35:12.712Z,6.30
2019-03-31T22:37:49.995Z,6.20
2019-03-31T22:40:18.881Z,6.20
2019-03-31T22:42:47.802Z,6.20
2019-03-31T22:45:23.935Z,6.10
2019-03-31T22:47:52.954Z,6.10
2019-03-31T22:50:28.910Z,6.10
2019-03-31T22:52:57.849Z,6.00
2019-03-31T22:55:26.915Z,6.10
2019-03-31T22:58:10.418Z,6.00
2019-03-31T23:00:39.610Z,6.00
2019-03-31T23:03:15.674Z,6.00
2019-03-31T23:05:44.766Z,6.00
2019-03-31T23:08:20.440Z,5.90
2019-03-31T23:10:56.681Z,5.90
2019-03-31T23:13:39.599Z,5.90
2019-03-31T23:16:08.589Z,5.90
2019-03-31T23:18:38.097Z,5.90
2019-03-31T23:21:13.759Z,5.90
2019-03-31T23:23:42.766Z,5.80
2019-03-31T23:26:18.810Z,5.80
2019-03-31T23:28:47.895Z,5.80
2019-03-31T23:31:17.824Z,5.80
2019-03-31T23:33:53.261Z,5.80
2019-03-31T23:36:22.559Z,5.70
2019-03-31T23:38:58.545Z,5.70
2019-03-31T23:41:28.225Z,5.60
2019-03-31T23:43:57.100Z,5.60
2019-03-31T23:46:32.969Z,5.60
2019-03-31T23:49:02.085Z,5.60
2019-03-31T23:51:37.933Z,5.50
2019-03-31T23:54:06.848Z,5.50
2019-03-31T23:56:35.914Z,5.50
2019-03-31T23:59:19.242Z,5.50
